Emerald, Pennsylvania
Current Conditions -  °F | °C
As of 9:51 PM on Wednesday 22 Oct 2014 (Local Time) from KABE Reporting Station
Overcast Overcast  
Wind Chill: 54°   Ceiling: 4400
Heat Index: 54°   Visibility: 10mi
Dew Point: 46°   Wind: 18mph
Humidity: 75%   Direction: 340°NNW
Pressure: 29.87"   Gusts: 24mph
Location:  40.7371°N, 75.6374°W
Report Text: KABE 230151Z 34016G21KT 10SM OVC044 12/08 A2987 RMK AO2 SLP114 T01220078
Loading
Personal Weather Stations






























Interactive Weather Map New forecast layout! Learn more

10-Day Weather Forecast

Advertisements
Track Severe Weather on mobile